الصفحة الرئيسية
METAR-TAF:

METAR-TAF

مطار :

بارس أباد, إيران

دائرة عرض: 39-36-13N, خط طول: 47-52-53E, ارتفاع: 77 متر

مراقبة الطقس الحالي

تاريخ ووقت الإصدار 25 دقيقة قبل الساعة 16:00UTC
ريح 10 عقدة من الجنوب الغربي
درجة الحرارة 9°درجة مئوية
الرطوبة 66%
ضغط 1014 hPa
الرؤية 10 كم أو أكثر
غيوم قليلة على ارتفاع 4000 قدم

METAR: OITP 301600Z 23010KT 9999 FEW040 09/03 Q1014

زمن: 19:55 (16:25 UTC)


TAF: مفقودة

أرصاد الطقس والتوقعات من أكثر من 4000 مطار (تقارير الطقس للمطار METAR والتنبؤ بالطقس بالمطارTAF).

المحطات المتاحة هي النقط الصفراء والحمراء على الخريطة.

حرك المؤشر فوق النقطة لمعرفة اسم المحطة.

ثم انقر لمعرفة أرصاد وتوقعات الطقس.

لتغيير الخارطة: اضغط على الأزرار الخضراء مع رمز الصليب الأسود للتكبير. على الزر الأخضر مع شرطة للتصغير، أو على الأسهم الخضراء للخرائط المجاورة.


METAR-TAF: